createdAt,value
2022-10-31T00:02:02.329Z,15.50
2022-10-31T00:05:04.157Z,15.50
2022-10-31T00:08:05.773Z,15.40
2022-10-31T00:11:11.081Z,15.40
2022-10-31T00:14:12.751Z,15.30
2022-10-31T00:17:40.895Z,15.30
2022-10-31T00:20:42.538Z,15.20
2022-10-31T00:23:44.208Z,15.10
2022-10-31T00:26:45.838Z,15.10
2022-10-31T00:29:47.418Z,15.10
2022-10-31T00:32:49.029Z,15.00
2022-10-31T00:35:51.653Z,15.00
2022-10-31T00:38:53.239Z,15.00
2022-10-31T00:41:54.851Z,15.00
2022-10-31T00:44:56.431Z,15.00
2022-10-31T00:47:58.167Z,15.00
2022-10-31T00:51:00.115Z,15.00
2022-10-31T00:54:01.736Z,15.00
2022-10-31T00:57:03.724Z,14.90
2022-10-31T01:00:05.788Z,14.90
2022-10-31T01:03:08.329Z,14.90
2022-10-31T01:06:12.671Z,14.90
2022-10-31T01:09:14.326Z,14.80
2022-10-31T01:12:16.258Z,14.80
2022-10-31T01:15:25.311Z,14.80
2022-10-31T01:18:27.587Z,14.80
2022-10-31T01:21:30.318Z,14.90
2022-10-31T01:24:34.502Z,14.80
2022-10-31T01:27:36.143Z,14.90
2022-10-31T01:30:40.246Z,14.80
2022-10-31T01:33:44.451Z,14.80
2022-10-31T01:36:48.193Z,14.80
2022-10-31T01:39:50.081Z,14.70
2022-10-31T01:42:51.954Z,14.70
2022-10-31T01:46:02.975Z,14.70
2022-10-31T01:49:38.372Z,14.60
2022-10-31T01:52:50.460Z,14.60
2022-10-31T01:55:52.281Z,14.50
2022-10-31T01:58:56.612Z,14.50
2022-10-31T02:01:58.328Z,14.50
2022-10-31T02:05:03.319Z,14.40
2022-10-31T02:08:16.890Z,14.40
2022-10-31T02:11:18.542Z,14.30
2022-10-31T02:14:23.467Z,14.30
2022-10-31T02:17:25.191Z,14.30
2022-10-31T02:20:38.609Z,14.30
2022-10-31T02:24:12.422Z,14.30
2022-10-31T02:27:44.923Z,14.30
2022-10-31T02:30:47.946Z,14.20
2022-10-31T02:34:10.441Z,14.20
2022-10-31T02:37:38.114Z,14.10
2022-10-31T02:41:21.002Z,14.10
2022-10-31T02:44:37.495Z,14.10
2022-10-31T02:47:39.645Z,14.00
2022-10-31T02:50:46.353Z,13.90
2022-10-31T02:53:47.946Z,13.90
2022-10-31T02:57:09.536Z,13.90
2022-10-31T03:00:14.367Z,13.90
2022-10-31T03:03:34.254Z,13.90
2022-10-31T03:06:45.991Z,13.90
2022-10-31T03:10:01.240Z,13.90
2022-10-31T03:13:03.118Z,13.80
2022-10-31T03:16:23.670Z,13.70
2022-10-31T03:19:32.079Z,13.70
2022-10-31T03:22:39.863Z,13.70
2022-10-31T03:25:43.071Z,13.70
2022-10-31T03:29:18.903Z,13.70
2022-10-31T03:32:27.796Z,13.70
2022-10-31T03:35:30.788Z,13.80
2022-10-31T03:38:34.456Z,13.80
2022-10-31T03:41:42.067Z,13.80
2022-10-31T03:44:48.443Z,13.70
2022-10-31T03:47:50.093Z,13.70
2022-10-31T03:51:02.207Z,13.60
2022-10-31T03:54:26.359Z,13.50
2022-10-31T03:57:34.731Z,13.50
2022-10-31T04:00:42.535Z,13.40
2022-10-31T04:03:45.333Z,13.50
2022-10-31T04:06:49.846Z,13.40
2022-10-31T04:09:52.937Z,13.50
2022-10-31T04:13:01.536Z,13.50
2022-10-31T04:16:04.180Z,13.50
2022-10-31T04:19:05.902Z,13.50
2022-10-31T04:22:07.561Z,13.40
2022-10-31T04:25:09.647Z,13.40
2022-10-31T04:28:11.380Z,13.40
2022-10-31T04:31:13.534Z,13.30
2022-10-31T04:34:15.571Z,13.40
2022-10-31T04:37:17.199Z,13.40
2022-10-31T04:40:18.797Z,13.30
2022-10-31T04:46:27.032Z,13.20
2022-10-31T04:49:28.664Z,13.10
2022-10-31T04:52:30.277Z,13.10
2022-10-31T04:55:32.267Z,13.10
2022-10-31T04:58:33.969Z,13.10
2022-10-31T05:01:35.878Z,13.10
2022-10-31T05:04:38.443Z,13.10
2022-10-31T05:07:42.486Z,13.00
2022-10-31T05:10:44.103Z,13.00
2022-10-31T05:13:45.806Z,13.00
2022-10-31T05:16:47.390Z,13.00
2022-10-31T05:19:48.999Z,13.00
2022-10-31T05:22:53.253Z,13.00
2022-10-31T05:25:54.879Z,13.00
2022-10-31T05:28:57.952Z,12.90
2022-10-31T05:31:59.826Z,12.90
2022-10-31T05:35:01.438Z,12.90
2022-10-31T05:38:03.123Z,12.80
2022-10-31T05:41:04.858Z,12.70
2022-10-31T05:44:06.597Z,12.70
2022-10-31T05:47:08.228Z,12.70
2022-10-31T05:50:10.881Z,12.70
2022-10-31T05:53:12.558Z,12.70
2022-10-31T05:56:14.199Z,12.70
2022-10-31T05:59:15.831Z,12.70
2022-10-31T06:02:17.441Z,12.80
2022-10-31T06:05:19.156Z,12.70
2022-10-31T06:08:20.846Z,12.70
2022-10-31T06:11:39.758Z,12.60
2022-10-31T06:14:41.348Z,12.60
2022-10-31T06:17:43.056Z,12.60
2022-10-31T06:20:47.545Z,12.60
2022-10-31T06:23:49.392Z,12.60
2022-10-31T06:26:51.046Z,12.60
2022-10-31T06:29:52.805Z,12.70
2022-10-31T06:32:54.571Z,12.70
2022-10-31T06:35:56.231Z,12.70
2022-10-31T06:38:57.869Z,12.70
2022-10-31T06:41:59.549Z,12.70
2022-10-31T06:45:01.192Z,12.80
2022-10-31T06:48:23.047Z,12.80
2022-10-31T06:51:24.844Z,12.90
2022-10-31T06:54:26.534Z,12.90
2022-10-31T06:57:28.144Z,13.00
2022-10-31T07:00:33.313Z,13.00
2022-10-31T07:03:35.099Z,13.10
2022-10-31T07:06:36.813Z,13.10
2022-10-31T07:09:38.463Z,13.20
2022-10-31T07:12:40.100Z,13.20
2022-10-31T07:15:43.604Z,13.40
2022-10-31T07:18:45.269Z,13.50
2022-10-31T07:21:46.911Z,13.50
2022-10-31T07:24:48.538Z,13.60
2022-10-31T07:27:50.355Z,13.70
2022-10-31T07:30:57.928Z,13.90
2022-10-31T07:33:59.925Z,14.00
2022-10-31T07:37:01.529Z,14.10
2022-10-31T07:40:04.661Z,14.20
2022-10-31T07:43:10.181Z,14.40
2022-10-31T07:46:17.978Z,14.50
2022-10-31T07:49:19.623Z,14.70
2022-10-31T07:52:21.262Z,15.00
2022-10-31T07:55:22.887Z,15.20
2022-10-31T07:58:25.157Z,15.40
2022-10-31T08:01:35.545Z,15.60
2022-10-31T08:04:37.409Z,15.90
2022-10-31T08:07:39.049Z,16.00
2022-10-31T08:10:41.466Z,16.20
2022-10-31T08:13:43.905Z,16.40
2022-10-31T08:16:45.511Z,16.40
2022-10-31T08:19:53.480Z,16.50
2022-10-31T08:22:57.134Z,16.50
2022-10-31T08:25:58.738Z,16.50
2022-10-31T08:29:00.456Z,16.60
2022-10-31T08:32:02.072Z,16.90
2022-10-31T08:35:03.814Z,17.10
2022-10-31T08:38:05.827Z,17.30
2022-10-31T08:41:07.450Z,17.40
2022-10-31T08:44:09.138Z,17.50
2022-10-31T08:47:10.739Z,17.60
2022-10-31T08:50:12.347Z,17.50
2022-10-31T08:53:19.359Z,17.60
2022-10-31T08:56:20.997Z,17.60
2022-10-31T08:59:22.760Z,17.60
2022-10-31T09:02:24.521Z,17.80
2022-10-31T09:05:27.063Z,17.80
2022-10-31T09:08:31.439Z,17.90
2022-10-31T09:11:33.094Z,18.00
2022-10-31T09:14:34.754Z,18.00
2022-10-31T09:17:36.458Z,18.00
2022-10-31T09:20:39.573Z,18.10
2022-10-31T09:23:41.229Z,18.30
2022-10-31T09:26:42.875Z,18.50
2022-10-31T09:29:45.238Z,18.70
2022-10-31T09:32:46.824Z,18.90
2022-10-31T09:35:49.682Z,19.10
2022-10-31T09:38:54.883Z,19.20
2022-10-31T09:42:41.238Z,19.10
2022-10-31T09:45:42.797Z,19.00
2022-10-31T09:49:06.616Z,19.10
2022-10-31T09:52:21.973Z,19.10
2022-10-31T09:55:42.386Z,19.30
2022-10-31T09:58:51.391Z,19.40
2022-10-31T10:02:15.861Z,19.60
2022-10-31T10:05:47.755Z,19.60
2022-10-31T10:08:49.782Z,19.80
2022-10-31T10:12:16.015Z,19.80
2022-10-31T10:15:23.477Z,19.90
2022-10-31T10:18:39.951Z,20.00
2022-10-31T10:21:59.086Z,20.00
2022-10-31T10:25:24.381Z,20.00
2022-10-31T10:28:39.191Z,19.90
2022-10-31T10:31:43.308Z,20.00
2022-10-31T10:34:53.538Z,19.90
2022-10-31T10:38:15.055Z,19.90
2022-10-31T10:41:22.591Z,19.90
2022-10-31T10:44:24.218Z,19.80
2022-10-31T10:47:39.809Z,19.70
2022-10-31T10:50:48.820Z,19.70
2022-10-31T10:54:09.417Z,19.70
2022-10-31T10:57:31.334Z,19.60
2022-10-31T11:00:44.880Z,19.60
2022-10-31T11:03:46.718Z,19.50
2022-10-31T11:06:58.279Z,19.30
2022-10-31T11:10:13.959Z,19.10
2022-10-31T11:13:20.357Z,19.10
2022-10-31T11:16:30.514Z,19.20
2022-10-31T11:19:32.616Z,19.20
2022-10-31T11:22:34.369Z,19.30
2022-10-31T11:25:36.106Z,19.20
2022-10-31T11:28:37.774Z,19.10
2022-10-31T11:31:40.075Z,19.00
2022-10-31T11:34:50.151Z,19.00
2022-10-31T11:37:54.759Z,19.10
2022-10-31T11:41:20.274Z,19.00
2022-10-31T11:44:26.539Z,19.00
2022-10-31T11:47:35.771Z,19.00
2022-10-31T11:50:41.045Z,18.90
2022-10-31T11:53:56.741Z,18.90
2022-10-31T11:57:01.617Z,18.80
2022-10-31T12:00:20.537Z,18.70
2022-10-31T12:03:38.858Z,18.80
2022-10-31T12:06:43.174Z,18.70
2022-10-31T12:09:44.879Z,18.70
2022-10-31T12:12:51.532Z,18.60
2022-10-31T12:16:03.286Z,18.70
2022-10-31T12:19:16.967Z,18.60
2022-10-31T12:22:23.701Z,18.60
2022-10-31T12:25:39.573Z,18.60
2022-10-31T12:29:08.313Z,18.60
2022-10-31T12:32:18.270Z,18.50
2022-10-31T12:35:56.708Z,18.60
2022-10-31T12:39:07.377Z,18.50
2022-10-31T12:42:42.553Z,18.50
2022-10-31T12:45:58.037Z,18.50
2022-10-31T12:49:16.323Z,18.50
2022-10-31T12:52:32.240Z,18.50
2022-10-31T12:56:07.601Z,18.50
2022-10-31T12:59:29.340Z,18.40
2022-10-31T13:02:57.921Z,18.40
2022-10-31T13:06:06.372Z,18.40
2022-10-31T13:09:13.798Z,18.40
2022-10-31T13:12:20.367Z,18.30
2022-10-31T13:15:33.509Z,18.30
2022-10-31T13:18:52.896Z,18.40
2022-10-31T13:22:28.330Z,18.30
2022-10-31T13:25:39.142Z,18.30
2022-10-31T13:28:57.118Z,18.30
2022-10-31T13:31:58.897Z,18.20
2022-10-31T13:35:01.111Z,18.10
2022-10-31T13:38:31.960Z,18.10
2022-10-31T13:41:49.941Z,18.10
2022-10-31T13:44:51.570Z,18.10
2022-10-31T13:48:21.269Z,17.90
2022-10-31T13:51:31.976Z,17.80
2022-10-31T13:54:35.250Z,17.80
2022-10-31T13:57:42.781Z,17.80
2022-10-31T14:00:44.673Z,17.70
2022-10-31T14:04:07.633Z,17.60
2022-10-31T14:07:15.996Z,17.60
2022-10-31T14:10:27.784Z,17.60
2022-10-31T14:13:42.837Z,17.50
2022-10-31T14:16:46.819Z,17.40
2022-10-31T14:20:03.902Z,17.40
2022-10-31T14:23:31.804Z,17.30
2022-10-31T14:26:35.471Z,17.30
2022-10-31T14:29:37.114Z,17.20
2022-10-31T14:32:38.758Z,17.20
2022-10-31T14:36:16.064Z,17.20
2022-10-31T14:39:31.720Z,17.10
2022-10-31T14:42:58.725Z,17.00
2022-10-31T14:46:00.578Z,17.00
2022-10-31T14:49:13.805Z,16.90
2022-10-31T14:52:19.741Z,16.90
2022-10-31T14:55:22.865Z,16.80
2022-10-31T14:58:40.620Z,16.80
2022-10-31T15:02:12.239Z,16.80
2022-10-31T15:05:14.565Z,16.70
2022-10-31T15:08:34.895Z,16.60
2022-10-31T15:11:39.017Z,16.60
2022-10-31T15:14:40.610Z,16.50
2022-10-31T15:18:17.015Z,16.50
2022-10-31T15:21:21.264Z,16.50
2022-10-31T15:24:34.028Z,16.50
2022-10-31T15:27:35.814Z,16.40
2022-10-31T15:30:37.415Z,16.30
2022-10-31T15:33:48.213Z,16.30
2022-10-31T15:36:53.538Z,16.30
2022-10-31T15:39:55.270Z,16.30
2022-10-31T15:43:05.830Z,16.30
2022-10-31T15:46:10.981Z,16.30
2022-10-31T15:49:37.651Z,16.20
2022-10-31T15:52:47.998Z,16.20
2022-10-31T15:56:01.848Z,16.20
2022-10-31T15:59:03.554Z,16.20
2022-10-31T16:02:13.555Z,16.10
2022-10-31T16:05:18.090Z,16.00
2022-10-31T16:08:30.636Z,16.00
2022-10-31T16:11:37.973Z,16.00
2022-10-31T16:14:42.239Z,15.90
2022-10-31T16:17:47.159Z,15.90
2022-10-31T16:20:56.393Z,15.90
2022-10-31T16:24:05.734Z,15.90
2022-10-31T16:27:26.514Z,15.90
2022-10-31T16:30:48.188Z,15.90
2022-10-31T16:33:50.457Z,15.90
2022-10-31T16:36:52.432Z,15.90
2022-10-31T16:40:05.688Z,15.90
2022-10-31T16:43:13.063Z,15.80
2022-10-31T16:46:18.871Z,15.80
2022-10-31T16:49:20.494Z,15.80
2022-10-31T16:52:22.133Z,15.70
2022-10-31T16:55:24.096Z,15.70
2022-10-31T16:58:28.979Z,15.70
2022-10-31T17:01:31.460Z,15.70
2022-10-31T17:04:33.254Z,15.70
2022-10-31T17:07:34.898Z,15.70
2022-10-31T17:10:37.256Z,15.70
2022-10-31T17:13:39.311Z,15.60
2022-10-31T17:16:40.907Z,15.60
2022-10-31T17:19:45.633Z,15.60
2022-10-31T17:22:59.047Z,15.60
2022-10-31T17:26:01.078Z,15.50
2022-10-31T17:29:03.513Z,15.50
2022-10-31T17:32:05.376Z,15.50
2022-10-31T17:35:08.218Z,15.50
2022-10-31T17:38:09.856Z,15.50
2022-10-31T17:41:11.756Z,15.50
2022-10-31T17:44:13.430Z,15.50
2022-10-31T17:47:15.047Z,15.40
2022-10-31T17:50:18.055Z,15.50
2022-10-31T17:53:19.761Z,15.40
2022-10-31T17:56:21.413Z,15.40
2022-10-31T17:59:23.135Z,15.40
2022-10-31T18:02:27.530Z,15.40
2022-10-31T18:05:29.264Z,15.30
2022-10-31T18:08:34.583Z,15.20
2022-10-31T18:11:39.289Z,15.20
2022-10-31T18:14:45.857Z,15.20
2022-10-31T18:17:49.806Z,15.20
2022-10-31T18:20:51.384Z,15.20
2022-10-31T18:23:57.297Z,15.20
2022-10-31T18:26:58.984Z,15.20
2022-10-31T18:30:00.589Z,15.10
2022-10-31T18:33:02.236Z,15.10
2022-10-31T18:36:16.318Z,15.20
2022-10-31T18:39:17.948Z,15.20
2022-10-31T18:42:19.571Z,15.10
2022-10-31T18:45:33.888Z,15.10
2022-10-31T18:48:44.394Z,15.00
2022-10-31T18:51:45.999Z,15.00
2022-10-31T18:54:47.662Z,15.00
2022-10-31T18:57:49.303Z,14.90
2022-10-31T19:00:51.182Z,14.90
2022-10-31T19:03:57.430Z,14.90
2022-10-31T19:06:59.701Z,14.90
2022-10-31T19:10:01.322Z,14.90
2022-10-31T19:13:03.225Z,14.80
2022-10-31T19:16:10.443Z,14.80
2022-10-31T19:19:12.059Z,14.80
2022-10-31T19:22:13.643Z,14.80
2022-10-31T19:25:15.358Z,14.80
2022-10-31T19:28:22.172Z,14.80
2022-10-31T19:31:24.235Z,14.70
2022-10-31T19:34:25.908Z,14.70
2022-10-31T19:37:27.582Z,14.70
2022-10-31T19:40:29.206Z,14.70
2022-10-31T19:43:30.939Z,14.60
2022-10-31T19:46:52.903Z,14.50
2022-10-31T19:49:54.291Z,14.50
2022-10-31T19:52:55.922Z,14.50
2022-10-31T19:55:58.416Z,14.50
2022-10-31T19:59:00.085Z,14.40
2022-10-31T20:02:01.720Z,14.40
2022-10-31T20:05:03.516Z,14.30
2022-10-31T20:08:05.285Z,14.30
2022-10-31T20:11:08.877Z,14.30
2022-10-31T20:14:12.899Z,14.30
2022-10-31T20:17:14.549Z,14.30
2022-10-31T20:20:19.091Z,14.30
2022-10-31T20:23:20.680Z,14.30
2022-10-31T20:26:23.218Z,14.20
2022-10-31T20:29:24.871Z,14.30
2022-10-31T20:32:26.477Z,14.20
2022-10-31T20:35:28.060Z,14.20
2022-10-31T20:38:29.716Z,14.20
2022-10-31T20:41:31.555Z,14.20
2022-10-31T20:44:33.237Z,14.20
2022-10-31T20:47:34.907Z,14.20
2022-10-31T20:50:39.254Z,14.20
2022-10-31T20:53:40.881Z,14.20
2022-10-31T20:56:45.376Z,14.30
2022-10-31T20:59:46.958Z,14.30
2022-10-31T21:02:49.350Z,14.30
2022-10-31T21:06:02.159Z,14.30
2022-10-31T21:09:04.314Z,14.40
2022-10-31T21:12:06.206Z,14.40
2022-10-31T21:15:09.066Z,14.40
2022-10-31T21:18:11.313Z,14.40
2022-10-31T21:21:15.658Z,14.40
2022-10-31T21:24:20.312Z,14.50
2022-10-31T21:27:21.988Z,14.50
2022-10-31T21:30:23.810Z,14.50
2022-10-31T21:33:25.551Z,14.50
2022-10-31T21:36:30.330Z,14.50
2022-10-31T21:39:31.955Z,14.50
2022-10-31T21:42:33.542Z,14.40
2022-10-31T21:45:40.502Z,14.40
2022-10-31T21:48:46.556Z,14.40
2022-10-31T21:51:48.253Z,14.40
2022-10-31T21:54:49.882Z,14.50
2022-10-31T21:57:51.508Z,14.50
2022-10-31T22:00:53.111Z,14.40
2022-10-31T22:03:55.410Z,14.50
2022-10-31T22:06:58.018Z,14.50
2022-10-31T22:09:59.673Z,14.50
2022-10-31T22:13:01.293Z,14.50
2022-10-31T22:16:08.619Z,14.50
2022-10-31T22:19:12.622Z,14.40
2022-10-31T22:22:14.234Z,14.40
2022-10-31T22:25:18.636Z,14.40
2022-10-31T22:28:20.292Z,14.40
2022-10-31T22:31:23.587Z,14.30
2022-10-31T22:34:25.194Z,14.30
2022-10-31T22:37:26.979Z,14.30
2022-10-31T22:40:28.574Z,14.20
2022-10-31T22:43:30.172Z,14.10
2022-10-31T22:46:34.672Z,14.00
2022-10-31T22:49:36.291Z,14.00
2022-10-31T22:52:41.072Z,13.90
2022-10-31T22:55:42.686Z,13.90
2022-10-31T22:58:44.422Z,13.90
2022-10-31T23:01:46.287Z,13.90
2022-10-31T23:04:48.145Z,13.80
2022-10-31T23:07:49.781Z,13.80
2022-10-31T23:10:51.869Z,13.80
2022-10-31T23:14:13.537Z,13.70
2022-10-31T23:17:17.580Z,13.70
2022-10-31T23:20:19.242Z,13.70
2022-10-31T23:23:21.595Z,13.60
2022-10-31T23:26:41.790Z,13.60
2022-10-31T23:29:49.538Z,13.60
2022-10-31T23:32:51.144Z,13.60
2022-10-31T23:35:52.814Z,13.60
2022-10-31T23:38:54.396Z,13.60
2022-10-31T23:41:56.160Z,13.50
2022-10-31T23:44:57.778Z,13.50
2022-10-31T23:47:59.614Z,13.50
2022-10-31T23:51:01.430Z,13.40
2022-10-31T23:54:03.052Z,13.40
2022-10-31T23:57:05.201Z,13.50
